LHX9JW EDDH-EDDF
Flight info
| Callsign | LHX9JW |
|---|---|
| Flight time | 0h 47m |
| Altitude | 34000 |
| Route | AMLUH2G/33 AMLUH M852 DENIX DCT RIMET T157 KERAX KERAX5A |
| Aircraft | A20N/M-SDE2E3FGILORWXY/HB1 |
Departure
| Time | 2026-05-06 15:08 |
|---|---|
| Airport | Hamburg Helmut Schmidt Airport (EDDH) |
Arrival
| Time | 2026-05-06 15:55 |
|---|---|
| Airport | Frankfurt Main Airport (EDDF) |
| Time | Latitude | Longitude | Altitude | Speed | Heading |
|---|---|---|---|---|---|
| 2026-05-06 14:25 | 53.63169 | 10.00366 | 62 ft | 0 kts | 85° |
| 2026-05-06 15:00 | 53.63168 | 10.00346 | 62 ft | 2 kts | 85° |
| 2026-05-06 15:00 | 53.63166 | 10.00321 | 62 ft | 2 kts | 86° |
| 2026-05-06 15:00 | 53.63166 | 10.00295 | 62 ft | 2 kts | 98° |
| 2026-05-06 15:01 | 53.63171 | 10.00272 | 62 ft | 2 kts | 126° |
| 2026-05-06 15:01 | 53.63182 | 10.00255 | 62 ft | 2 kts | 153° |
| 2026-05-06 15:01 | 53.63193 | 10.00248 | 62 ft | 0 kts | 173° |
| 2026-05-06 15:01 | 53.63200 | 10.00248 | 62 ft | 1 kts | 177° |
| 2026-05-06 15:02 | 53.63201 | 10.00248 | 62 ft | 0 kts | 177° |
| 2026-05-06 15:03 | 53.63199 | 10.00248 | 62 ft | 0 kts | 176° |
| 2026-05-06 15:03 | 53.63186 | 10.00249 | 62 ft | 4 kts | 175° |
| 2026-05-06 15:04 | 53.63126 | 10.00257 | 62 ft | 11 kts | 175° |
| 2026-05-06 15:04 | 53.63047 | 10.00238 | 62 ft | 12 kts | 212° |
| 2026-05-06 15:04 | 53.62970 | 10.00157 | 62 ft | 13 kts | 212° |
| 2026-05-06 15:04 | 53.62893 | 10.00074 | 62 ft | 11 kts | 212° |
| 2026-05-06 15:05 | 53.62856 | 10.00002 | 62 ft | 6 kts | 243° |
| 2026-05-06 15:05 | 53.62843 | 9.99958 | 62 ft | 1 kts | 243° |
| 2026-05-06 15:05 | 53.62843 | 9.99957 | 62 ft | 0 kts | 243° |
| 2026-05-06 15:06 | 53.62839 | 9.99943 | 62 ft | 2 kts | 243° |
| 2026-05-06 15:06 | 53.62827 | 9.99906 | 62 ft | 5 kts | 243° |
| 2026-05-06 15:07 | 53.62807 | 9.99839 | 62 ft | 7 kts | 243° |
| 2026-05-06 15:07 | 53.62831 | 9.99776 | 62 ft | 8 kts | 331° |
| 2026-05-06 15:07 | 53.63036 | 9.99600 | 62 ft | 71 kts | 333° |
| 2026-05-06 15:07 | 53.63698 | 9.99027 | 62 ft | 140 kts | 332° |
| 2026-05-06 15:08 | 53.64673 | 9.98175 | 434 ft | 165 kts | 336° |
| 2026-05-06 15:08 | 53.65672 | 9.97289 | 1180 ft | 167 kts | 338° |
| 2026-05-06 15:08 | 53.66680 | 9.96407 | 1993 ft | 166 kts | 339° |
| 2026-05-06 15:08 | 53.67741 | 9.95485 | 2555 ft | 179 kts | 339° |
| 2026-05-06 15:09 | 53.68937 | 9.94736 | 3048 ft | 192 kts | 354° |
| 2026-05-06 15:09 | 53.70303 | 9.94604 | 3532 ft | 208 kts | 5° |
| 2026-05-06 15:09 | 53.71801 | 9.94698 | 4231 ft | 218 kts | 12° |
| 2026-05-06 15:09 | 53.73114 | 9.95716 | 5121 ft | 214 kts | 46° |
| 2026-05-06 15:10 | 53.73878 | 9.97773 | 6024 ft | 213 kts | 74° |
| 2026-05-06 15:10 | 53.74108 | 10.00249 | 6864 ft | 218 kts | 82° |
| 2026-05-06 15:10 | 53.74158 | 10.02829 | 7664 ft | 226 kts | 97° |
| 2026-05-06 15:10 | 53.73665 | 10.05366 | 8361 ft | 239 kts | 115° |
| 2026-05-06 15:11 | 53.72835 | 10.07901 | 8890 ft | 257 kts | 117° |
| 2026-05-06 15:11 | 53.71909 | 10.10587 | 9414 ft | 275 kts | 118° |
| 2026-05-06 15:11 | 53.70938 | 10.13413 | 10033 ft | 287 kts | 118° |
| 2026-05-06 15:11 | 53.69934 | 10.16375 | 10644 ft | 300 kts | 118° |
| 2026-05-06 15:12 | 53.68666 | 10.19312 | 11093 ft | 321 kts | 137° |
| 2026-05-06 15:12 | 53.66760 | 10.21380 | 11497 ft | 340 kts | 159° |
| 2026-05-06 15:12 | 53.64448 | 10.22517 | 12134 ft | 349 kts | 166° |
| 2026-05-06 15:12 | 53.62117 | 10.23534 | 12966 ft | 352 kts | 166° |
| 2026-05-06 15:13 | 53.59769 | 10.24566 | 13791 ft | 354 kts | 166° |
| 2026-05-06 15:13 | 53.57362 | 10.25637 | 14589 ft | 358 kts | 166° |
| 2026-05-06 15:13 | 53.54985 | 10.26717 | 15419 ft | 359 kts | 166° |
| 2026-05-06 15:13 | 53.52587 | 10.27808 | 16222 ft | 360 kts | 166° |
| 2026-05-06 15:14 | 53.50171 | 10.28908 | 16980 ft | 362 kts | 166° |
| 2026-05-06 15:14 | 53.47739 | 10.30014 | 17708 ft | 364 kts | 166° |
| 2026-05-06 15:14 | 53.45285 | 10.31132 | 18409 ft | 366 kts | 167° |
| 2026-05-06 15:14 | 53.42828 | 10.32249 | 19069 ft | 369 kts | 166° |
| 2026-05-06 15:15 | 53.40362 | 10.33364 | 19693 ft | 373 kts | 166° |
| 2026-05-06 15:15 | 53.37826 | 10.34505 | 20303 ft | 377 kts | 166° |
| 2026-05-06 15:15 | 53.35283 | 10.35646 | 20910 ft | 381 kts | 166° |
| 2026-05-06 15:15 | 53.32738 | 10.36785 | 21500 ft | 385 kts | 166° |
| 2026-05-06 15:16 | 53.30119 | 10.37958 | 22065 ft | 390 kts | 166° |
| 2026-05-06 15:16 | 53.27508 | 10.39126 | 22621 ft | 394 kts | 165° |
| 2026-05-06 15:16 | 53.24838 | 10.40322 | 23210 ft | 397 kts | 166° |
| 2026-05-06 15:16 | 53.22153 | 10.41527 | 23766 ft | 401 kts | 165° |
| 2026-05-06 15:17 | 53.19479 | 10.42720 | 24311 ft | 404 kts | 166° |
| 2026-05-06 15:17 | 53.16762 | 10.43930 | 24865 ft | 407 kts | 166° |
| 2026-05-06 15:17 | 53.13995 | 10.44861 | 25406 ft | 409 kts | 172° |
| 2026-05-06 15:17 | 53.11162 | 10.45236 | 25944 ft | 411 kts | 179° |
| 2026-05-06 15:18 | 53.08308 | 10.45055 | 26437 ft | 413 kts | 184° |
| 2026-05-06 15:18 | 53.05431 | 10.44670 | 26914 ft | 416 kts | 185° |
| 2026-05-06 15:18 | 53.02525 | 10.44260 | 27382 ft | 419 kts | 185° |
| 2026-05-06 15:18 | 52.99628 | 10.43852 | 27803 ft | 423 kts | 184° |
| 2026-05-06 15:19 | 52.96674 | 10.43440 | 28191 ft | 426 kts | 184° |
| 2026-05-06 15:19 | 52.93716 | 10.43031 | 28695 ft | 426 kts | 184° |
| 2026-05-06 15:19 | 52.90802 | 10.42632 | 29267 ft | 424 kts | 184° |
| 2026-05-06 15:19 | 52.87884 | 10.42232 | 29847 ft | 421 kts | 184° |
| 2026-05-06 15:20 | 52.84945 | 10.41830 | 30451 ft | 417 kts | 183° |
| 2026-05-06 15:20 | 52.82091 | 10.41440 | 30955 ft | 415 kts | 183° |
| 2026-05-06 15:20 | 52.79211 | 10.41052 | 31380 ft | 414 kts | 184° |
| 2026-05-06 15:20 | 52.76372 | 10.40674 | 31771 ft | 413 kts | 184° |
| 2026-05-06 15:21 | 52.73495 | 10.40290 | 32171 ft | 411 kts | 184° |
| 2026-05-06 15:21 | 52.70676 | 10.39912 | 32501 ft | 411 kts | 185° |
| 2026-05-06 15:21 | 52.67802 | 10.39524 | 32781 ft | 412 kts | 185° |
| 2026-05-06 15:21 | 52.64942 | 10.39138 | 33049 ft | 413 kts | 185° |
| 2026-05-06 15:22 | 52.62058 | 10.38749 | 33301 ft | 415 kts | 185° |
| 2026-05-06 15:22 | 52.56268 | 10.37966 | 33467 ft | 425 kts | 186° |
| 2026-05-06 15:23 | 52.50352 | 10.37172 | 33619 ft | 433 kts | 186° |
| 2026-05-06 15:23 | 52.44301 | 10.36367 | 33787 ft | 439 kts | 186° |
| 2026-05-06 15:24 | 52.38168 | 10.35551 | 33792 ft | 444 kts | 186° |
| 2026-05-06 15:24 | 52.32031 | 10.34736 | 33784 ft | 444 kts | 186° |
| 2026-05-06 15:25 | 52.25897 | 10.33923 | 33780 ft | 444 kts | 186° |
| 2026-05-06 15:25 | 52.19721 | 10.33104 | 33777 ft | 444 kts | 186° |
| 2026-05-06 15:26 | 52.13546 | 10.32290 | 33766 ft | 443 kts | 186° |
| 2026-05-06 15:26 | 52.07403 | 10.31482 | 33757 ft | 443 kts | 186° |
| 2026-05-06 15:27 | 52.01268 | 10.30678 | 33771 ft | 443 kts | 186° |
| 2026-05-06 15:27 | 51.95119 | 10.29874 | 33775 ft | 443 kts | 186° |
| 2026-05-06 15:28 | 51.89001 | 10.29077 | 33769 ft | 442 kts | 186° |
| 2026-05-06 15:28 | 51.82876 | 10.28280 | 33572 ft | 442 kts | 186° |
| 2026-05-06 15:28 | 51.79800 | 10.27881 | 33366 ft | 442 kts | 187° |
| 2026-05-06 15:29 | 51.76756 | 10.27377 | 33135 ft | 440 kts | 192° |
| 2026-05-06 15:29 | 51.73812 | 10.26175 | 32913 ft | 439 kts | 199° |
| 2026-05-06 15:29 | 51.70932 | 10.24686 | 32699 ft | 439 kts | 199° |
| 2026-05-06 15:29 | 51.68039 | 10.23162 | 32472 ft | 439 kts | 199° |
| 2026-05-06 15:30 | 51.65139 | 10.21641 | 32266 ft | 438 kts | 199° |
| 2026-05-06 15:30 | 51.62274 | 10.20152 | 31919 ft | 428 kts | 199° |
| 2026-05-06 15:30 | 51.59481 | 10.18709 | 31697 ft | 416 kts | 199° |
| 2026-05-06 15:30 | 51.56779 | 10.17320 | 31471 ft | 405 kts | 199° |
| 2026-05-06 15:31 | 51.54138 | 10.15964 | 31241 ft | 399 kts | 199° |
| 2026-05-06 15:31 | 51.51474 | 10.14597 | 31021 ft | 399 kts | 199° |
| 2026-05-06 15:31 | 51.48846 | 10.13252 | 30799 ft | 398 kts | 200° |
| 2026-05-06 15:32 | 51.43586 | 10.10562 | 30267 ft | 398 kts | 199° |
| 2026-05-06 15:32 | 51.40974 | 10.09230 | 29999 ft | 398 kts | 199° |
| 2026-05-06 15:32 | 51.38331 | 10.07886 | 29664 ft | 399 kts | 199° |
| 2026-05-06 15:32 | 51.35718 | 10.06543 | 29183 ft | 400 kts | 200° |
| 2026-05-06 15:33 | 51.33058 | 10.05077 | 28542 ft | 401 kts | 201° |
| 2026-05-06 15:33 | 51.30454 | 10.03611 | 27839 ft | 401 kts | 201° |
| 2026-05-06 15:33 | 51.27834 | 10.02139 | 27335 ft | 396 kts | 201° |
| 2026-05-06 15:33 | 51.25251 | 10.00698 | 26842 ft | 392 kts | 201° |
| 2026-05-06 15:34 | 51.22712 | 9.99288 | 26342 ft | 388 kts | 201° |
| 2026-05-06 15:34 | 51.20177 | 9.97883 | 25840 ft | 385 kts | 201° |
| 2026-05-06 15:34 | 51.17668 | 9.96496 | 25341 ft | 381 kts | 201° |
| 2026-05-06 15:34 | 51.15166 | 9.95113 | 24840 ft | 378 kts | 201° |
| 2026-05-06 15:35 | 51.12700 | 9.93751 | 24348 ft | 375 kts | 201° |
| 2026-05-06 15:35 | 51.10246 | 9.92400 | 23856 ft | 372 kts | 201° |
| 2026-05-06 15:35 | 51.07803 | 9.91055 | 23364 ft | 369 kts | 201° |
| 2026-05-06 15:35 | 51.05390 | 9.89726 | 22888 ft | 366 kts | 201° |
| 2026-05-06 15:36 | 51.02994 | 9.88408 | 22407 ft | 363 kts | 201° |
| 2026-05-06 15:36 | 51.00625 | 9.87108 | 21935 ft | 361 kts | 201° |
| 2026-05-06 15:36 | 50.98280 | 9.85821 | 21451 ft | 359 kts | 201° |
| 2026-05-06 15:36 | 50.95914 | 9.84525 | 20962 ft | 357 kts | 201° |
| 2026-05-06 15:37 | 50.93579 | 9.83246 | 20474 ft | 355 kts | 201° |
| 2026-05-06 15:37 | 50.91258 | 9.81979 | 19994 ft | 353 kts | 201° |
| 2026-05-06 15:37 | 50.88984 | 9.80647 | 19513 ft | 350 kts | 207° |
| 2026-05-06 15:37 | 50.86926 | 9.78566 | 19114 ft | 353 kts | 217° |
| 2026-05-06 15:38 | 50.84965 | 9.76192 | 18729 ft | 355 kts | 218° |
| 2026-05-06 15:38 | 50.83025 | 9.73823 | 18339 ft | 355 kts | 218° |
| 2026-05-06 15:38 | 50.81048 | 9.71449 | 17959 ft | 354 kts | 217° |
| 2026-05-06 15:38 | 50.79109 | 9.69160 | 17603 ft | 352 kts | 217° |
| 2026-05-06 15:39 | 50.77136 | 9.66854 | 17209 ft | 349 kts | 217° |
| 2026-05-06 15:39 | 50.75193 | 9.64599 | 16823 ft | 348 kts | 217° |
| 2026-05-06 15:39 | 50.73257 | 9.62363 | 16460 ft | 347 kts | 217° |
| 2026-05-06 15:39 | 50.71298 | 9.60108 | 16090 ft | 345 kts | 217° |
| 2026-05-06 15:40 | 50.69361 | 9.57886 | 15706 ft | 344 kts | 217° |
| 2026-05-06 15:40 | 50.67446 | 9.55691 | 15341 ft | 342 kts | 217° |
| 2026-05-06 15:40 | 50.65521 | 9.53487 | 14979 ft | 342 kts | 217° |
| 2026-05-06 15:40 | 50.63594 | 9.51285 | 14618 ft | 341 kts | 217° |
| 2026-05-06 15:41 | 50.61688 | 9.49109 | 14253 ft | 340 kts | 217° |
| 2026-05-06 15:41 | 50.59782 | 9.46937 | 13894 ft | 338 kts | 217° |
| 2026-05-06 15:41 | 50.57906 | 9.44801 | 13497 ft | 336 kts | 217° |
| 2026-05-06 15:41 | 50.56024 | 9.42660 | 13053 ft | 334 kts | 217° |
| 2026-05-06 15:42 | 50.54137 | 9.40513 | 12591 ft | 332 kts | 217° |
| 2026-05-06 15:42 | 50.52279 | 9.38404 | 12153 ft | 329 kts | 217° |
| 2026-05-06 15:42 | 50.50436 | 9.36313 | 11677 ft | 328 kts | 217° |
| 2026-05-06 15:42 | 50.48609 | 9.34243 | 11213 ft | 326 kts | 217° |
| 2026-05-06 15:43 | 50.46771 | 9.32164 | 10733 ft | 325 kts | 216° |
| 2026-05-06 15:43 | 50.44933 | 9.30086 | 10306 ft | 321 kts | 216° |
| 2026-05-06 15:43 | 50.43164 | 9.28090 | 10035 ft | 312 kts | 216° |
| 2026-05-06 15:43 | 50.41439 | 9.26144 | 9927 ft | 297 kts | 216° |
| 2026-05-06 15:44 | 50.39808 | 9.24307 | 9847 ft | 283 kts | 216° |
| 2026-05-06 15:44 | 50.38230 | 9.22531 | 9748 ft | 271 kts | 217° |
| 2026-05-06 15:44 | 50.36703 | 9.20812 | 9369 ft | 270 kts | 217° |
| 2026-05-06 15:44 | 50.35180 | 9.19097 | 9003 ft | 269 kts | 217° |
| 2026-05-06 15:45 | 50.33672 | 9.17401 | 8635 ft | 268 kts | 217° |
| 2026-05-06 15:45 | 50.32266 | 9.15539 | 8333 ft | 264 kts | 224° |
| 2026-05-06 15:45 | 50.30956 | 9.13564 | 8085 ft | 259 kts | 225° |
| 2026-05-06 15:45 | 50.29644 | 9.11567 | 7883 ft | 266 kts | 225° |
| 2026-05-06 15:46 | 50.28310 | 9.09559 | 7661 ft | 266 kts | 224° |
| 2026-05-06 15:46 | 50.26976 | 9.07574 | 7440 ft | 265 kts | 224° |
| 2026-05-06 15:46 | 50.25573 | 9.05739 | 7239 ft | 264 kts | 210° |
| 2026-05-06 15:46 | 50.23843 | 9.04989 | 7121 ft | 256 kts | 181° |
| 2026-05-06 15:47 | 50.22118 | 9.05451 | 7012 ft | 247 kts | 167° |
| 2026-05-06 15:47 | 50.20511 | 9.06235 | 6912 ft | 242 kts | 165° |
| 2026-05-06 15:47 | 50.18857 | 9.06678 | 6804 ft | 237 kts | 189° |
| 2026-05-06 15:47 | 50.17363 | 9.05790 | 6684 ft | 232 kts | 220° |
| 2026-05-06 15:48 | 50.16391 | 9.03822 | 6594 ft | 230 kts | 246° |
| 2026-05-06 15:48 | 50.15868 | 9.01478 | 6440 ft | 229 kts | 254° |
| 2026-05-06 15:48 | 50.15438 | 8.99112 | 6193 ft | 227 kts | 254° |
| 2026-05-06 15:48 | 50.14976 | 8.96775 | 5933 ft | 223 kts | 252° |
| 2026-05-06 15:49 | 50.14492 | 8.94519 | 5679 ft | 220 kts | 251° |
| 2026-05-06 15:49 | 50.13984 | 8.92290 | 5428 ft | 218 kts | 250° |
| 2026-05-06 15:49 | 50.13462 | 8.90085 | 5177 ft | 214 kts | 250° |
| 2026-05-06 15:49 | 50.12937 | 8.87942 | 4983 ft | 208 kts | 250° |
| 2026-05-06 15:50 | 50.12432 | 8.85895 | 4899 ft | 197 kts | 250° |
| 2026-05-06 15:50 | 50.11956 | 8.83957 | 4754 ft | 187 kts | 250° |
| 2026-05-06 15:50 | 50.11496 | 8.82075 | 4472 ft | 184 kts | 251° |
| 2026-05-06 15:50 | 50.11049 | 8.80242 | 4188 ft | 181 kts | 251° |
| 2026-05-06 15:51 | 50.10605 | 8.78414 | 3905 ft | 178 kts | 251° |
| 2026-05-06 15:51 | 50.10176 | 8.76641 | 3636 ft | 174 kts | 251° |
| 2026-05-06 15:51 | 50.09758 | 8.74914 | 3385 ft | 170 kts | 252° |
| 2026-05-06 15:51 | 50.09342 | 8.73193 | 3139 ft | 166 kts | 252° |
| 2026-05-06 15:52 | 50.08944 | 8.71540 | 2910 ft | 161 kts | 252° |
| 2026-05-06 15:52 | 50.08556 | 8.69936 | 2690 ft | 156 kts | 253° |
| 2026-05-06 15:52 | 50.08183 | 8.68386 | 2478 ft | 150 kts | 253° |
| 2026-05-06 15:52 | 50.07828 | 8.66917 | 2280 ft | 139 kts | 254° |
| 2026-05-06 15:53 | 50.07495 | 8.65532 | 2089 ft | 136 kts | 254° |
| 2026-05-06 15:53 | 50.07162 | 8.64144 | 1903 ft | 137 kts | 254° |
| 2026-05-06 15:53 | 50.06828 | 8.62753 | 1710 ft | 136 kts | 254° |
| 2026-05-06 15:53 | 50.06500 | 8.61389 | 1518 ft | 136 kts | 254° |
| 2026-05-06 15:54 | 50.06168 | 8.60001 | 1319 ft | 136 kts | 253° |
| 2026-05-06 15:54 | 50.05841 | 8.58635 | 1127 ft | 135 kts | 252° |
| 2026-05-06 15:54 | 50.05498 | 8.57244 | 937 ft | 139 kts | 252° |
| 2026-05-06 15:54 | 50.05169 | 8.55831 | 742 ft | 139 kts | 253° |
| 2026-05-06 15:55 | 50.04839 | 8.54433 | 542 ft | 137 kts | 252° |
| 2026-05-06 15:55 | 50.04512 | 8.53077 | 368 ft | 130 kts | 251° |
| 2026-05-06 15:55 | 50.04233 | 8.51910 | 352 ft | 91 kts | 250° |
| 2026-05-06 15:55 | 50.04071 | 8.51252 | 352 ft | 40 kts | 246° |
| 2026-05-06 15:56 | 50.03950 | 8.50982 | 352 ft | 22 kts | 220° |
| 2026-05-06 15:56 | 50.03859 | 8.50865 | 352 ft | 15 kts | 218° |
| 2026-05-06 15:56 | 50.03785 | 8.50885 | 352 ft | 8 kts | 115° |
| 2026-05-06 15:56 | 50.03797 | 8.50994 | 352 ft | 12 kts | 70° |
| 2026-05-06 15:57 | 50.03831 | 8.51138 | 352 ft | 15 kts | 69° |
| 2026-05-06 15:57 | 50.03873 | 8.51311 | 352 ft | 18 kts | 70° |
| 2026-05-06 15:57 | 50.03922 | 8.51512 | 352 ft | 21 kts | 70° |
| 2026-05-06 15:57 | 50.03976 | 8.51738 | 352 ft | 23 kts | 69° |
| 2026-05-06 15:58 | 50.04035 | 8.51981 | 352 ft | 24 kts | 70° |
| 2026-05-06 15:58 | 50.04094 | 8.52229 | 352 ft | 24 kts | 70° |
| 2026-05-06 15:58 | 50.04154 | 8.52471 | 352 ft | 23 kts | 71° |
| 2026-05-06 15:58 | 50.04210 | 8.52711 | 352 ft | 23 kts | 70° |
| 2026-05-06 15:59 | 50.04268 | 8.52947 | 352 ft | 23 kts | 70° |
| 2026-05-06 15:59 | 50.04323 | 8.53180 | 352 ft | 22 kts | 70° |
| 2026-05-06 15:59 | 50.04378 | 8.53406 | 352 ft | 22 kts | 70° |
| 2026-05-06 15:59 | 50.04407 | 8.53638 | 352 ft | 19 kts | 84° |
| 2026-05-06 16:00 | 50.04419 | 8.53821 | 352 ft | 14 kts | 85° |
| 2026-05-06 16:00 | 50.04429 | 8.53982 | 352 ft | 16 kts | 84° |
| 2026-05-06 16:00 | 50.04442 | 8.54174 | 352 ft | 18 kts | 84° |
| 2026-05-06 16:00 | 50.04454 | 8.54362 | 352 ft | 18 kts | 85° |
| 2026-05-06 16:01 | 50.04442 | 8.54562 | 352 ft | 18 kts | 113° |
| 2026-05-06 16:01 | 50.04366 | 8.54725 | 352 ft | 19 kts | 141° |
| 2026-05-06 16:01 | 50.04247 | 8.54815 | 352 ft | 18 kts | 161° |
| 2026-05-06 16:01 | 50.04126 | 8.54882 | 352 ft | 18 kts | 161° |
| 2026-05-06 16:02 | 50.04024 | 8.54933 | 352 ft | 14 kts | 161° |
| 2026-05-06 16:02 | 50.03931 | 8.54998 | 352 ft | 14 kts | 157° |
| 2026-05-06 16:02 | 50.03852 | 8.55085 | 352 ft | 14 kts | 99° |
| 2026-05-06 16:02 | 50.03880 | 8.55235 | 352 ft | 14 kts | 70° |
| 2026-05-06 16:03 | 50.03918 | 8.55395 | 352 ft | 17 kts | 70° |
| 2026-05-06 16:03 | 50.03964 | 8.55588 | 352 ft | 20 kts | 70° |
| 2026-05-06 16:03 | 50.04017 | 8.55809 | 352 ft | 22 kts | 70° |
| 2026-05-06 16:03 | 50.04075 | 8.56047 | 352 ft | 24 kts | 69° |
| 2026-05-06 16:04 | 50.04134 | 8.56296 | 352 ft | 25 kts | 70° |
| 2026-05-06 16:04 | 50.04196 | 8.56553 | 352 ft | 25 kts | 70° |
| 2026-05-06 16:04 | 50.04254 | 8.56799 | 352 ft | 23 kts | 70° |
| 2026-05-06 16:04 | 50.04309 | 8.57027 | 352 ft | 21 kts | 69° |
| 2026-05-06 16:05 | 50.04360 | 8.57241 | 352 ft | 20 kts | 70° |
| 2026-05-06 16:05 | 50.04409 | 8.57444 | 352 ft | 19 kts | 70° |
| 2026-05-06 16:05 | 50.04455 | 8.57635 | 352 ft | 18 kts | 70° |
| 2026-05-06 16:05 | 50.04488 | 8.57785 | 352 ft | 13 kts | 72° |
| 2026-05-06 16:06 | 50.04516 | 8.57924 | 352 ft | 13 kts | 72° |
| 2026-05-06 16:06 | 50.04573 | 8.58027 | 351 ft | 12 kts | 20° |
| 2026-05-06 16:06 | 50.04653 | 8.57996 | 351 ft | 11 kts | 336° |
| 2026-05-06 16:06 | 50.04731 | 8.57954 | 351 ft | 11 kts | 357° |
| 2026-05-06 16:07 | 50.04796 | 8.58013 | 351 ft | 11 kts | 60° |
| 2026-05-06 16:07 | 50.04826 | 8.58129 | 351 ft | 11 kts | 70° |
| 2026-05-06 16:07 | 50.04853 | 8.58246 | 351 ft | 11 kts | 70° |
| 2026-05-06 16:07 | 50.04883 | 8.58371 | 351 ft | 12 kts | 70° |
| 2026-05-06 16:08 | 50.04915 | 8.58504 | 351 ft | 13 kts | 70° |
| 2026-05-06 16:08 | 50.04948 | 8.58645 | 351 ft | 13 kts | 70° |
| 2026-05-06 16:08 | 50.04982 | 8.58785 | 351 ft | 13 kts | 70° |
| 2026-05-06 16:08 | 50.05014 | 8.58922 | 351 ft | 13 kts | 70° |
| 2026-05-06 16:09 | 50.05030 | 8.59025 | 351 ft | 8 kts | 112° |
| 2026-05-06 16:09 | 50.04979 | 8.59067 | 351 ft | 6 kts | 160° |
| 2026-05-06 16:09 | 50.04966 | 8.59074 | 351 ft | 0 kts | 160° |